Airfield :
LOGIN :

Register | Disclaimer

   EN    FR    IT 

 










Legend :    VFR   Marginal VFR   IFR   Intensive IFR   Very Intensive IFR
Visi :
Ceiling :
>= 8 km
>= 3000ft
5 to 8 km
1000 to 3000 ft
1500m to 5 km
500 to 1000 ft
800 to 1500m
200 to 500 ft
< 800m
< 200 ft
Symbols :   Thunderstorms  Fog  Heavy snow  Heavy precipitations  Wind > 20 kt
SIGMETs :     Misc.  Thunderstorms  Icing  Turbulence  Mountain Waves  Volcanic Ashes






- Airport Elevation : 56 ft
- IATA code : ODE


EKOD - Odense

CURRENT METAR :
  • 041150Z 23017KT 200V260 9000 -RA FEW020 BKN050 16/15 Q1016

EXPIRED METARs :
  • 041050Z 23009KT 9999 FEW020 BKN085 18/15 Q1016
  • 040950Z 21007KT 170V250 9999 SCT022 17/15 Q1016

TAF TAF EKOD
Valid from the 04 at 12:00 until the 04 at 16:00 UTC


041158Z 0412/0416 24010KT 9999 SCT025
TEMPO 0412/0416 SHRA SCT020CB



MET'MAP, your aeronautical weather chart ! - Copyright ORBIFLY December 2007 - Disclaimer

ORBIFLY MET'MAP TEAM :

Programming & Development : Alexandra Zaïnal
Original concept : Baudouin d'Aumeries
Technical & hardware support : Manuel Goepfert
Assistance : Marc-Olivier Méhu




SOURCES & CREDITS :

   NOAA